Ide Min — PC8366 — position and weather

sailwx.info

Track history (hours):
 
Tides and Currents Weather Stations Pressure Air Temp Water Temp Dewpoint Dewpoint Depression Visibility Wind Speed Wind Dir Waves Ship Positions

Ide Min (Netherlands)

Ship's website: http://www.idemin.nl/english/english.html

Last reported at 2016-May-24 16:33 UTC. Time now 2016-May-24 17:40 UTC.
Position N 54°22' E 010°09'.

Length 40 m; draft 2.4 m.

MMSI: 244537000.

Date/timePositionNaut miles runAvg speedWind from/ knotsBaromVisibWave heightAir tempDewpointWater temp
2016-May-24 16:33N 54°22' E 010°09'0 0.0
2016-May-24 15:33N 54°22' E 010°09'0 0.0
2016-May-24 14:34N 54°22' E 010°09'0 0.0
2016-May-24 13:33N 54°22' E 010°09'0 0.0
2016-May-24 12:33N 54°22' E 010°09'0 0.0
2016-May-24 11:34N 54°22' E 010°09'0 0.0
2016-May-24 10:33N 54°22' E 010°09'0 0.0
2016-May-24 09:33N 54°22' E 010°09'0 0.0
2016-May-24 08:33N 54°22' E 010°09'0 0.0
2016-May-24 07:33N 54°22' E 010°09'0 0.0
2016-May-24 06:33N 54°22' E 010°09'0 0.0
2016-May-24 05:33N 54°22' E 010°09'0 0.0
2016-May-24 04:33N 54°22' E 010°09'0 0.0
2016-May-24 03:33N 54°22' E 010°09'0 0.0
2016-May-24 02:33N 54°22' E 010°09'0 0.0
2016-May-24 01:33N 54°22' E 010°09'0 0.0
2016-May-24 00:34N 54°22' E 010°09'0 0.0
2016-May-23 23:33N 54°22' E 010°09'0 0.0
2016-May-23 22:33N 54°22' E 010°09'0 0.0
2016-May-23 21:33N 54°22' E 010°09'0 0.0
2016-May-23 20:33N 54°22' E 010°09'0 0.0
2016-May-23 19:33N 54°22' E 010°09'0 0.0
2016-May-23 18:33N 54°22' E 010°09'0 0.0
2016-May-23 17:33N 54°22' E 010°09'0 0.0
2016-May-23 16:33N 54°22' E 010°09'0 0.0
2016-May-23 15:33N 54°22' E 010°09'0 0.0
2016-May-23 14:33N 54°22' E 010°09'0 0.0
2016-May-23 13:33N 54°22' E 010°09'0 0.0
2016-May-23 12:33N 54°22' E 010°09'0 0.0
2016-May-23 11:33N 54°22' E 010°09'0 0.0
2016-May-23 10:33N 54°22' E 010°09'0 0.0
2016-May-23 09:33N 54°22' E 010°09'0 0.0
2016-May-23 08:33N 54°22' E 010°09'0 0.0
2016-May-23 07:34N 54°22' E 010°09'0 0.0
2016-May-23 06:33N 54°22' E 010°09'0 0.0
2016-May-23 05:33N 54°22' E 010°09'0 0.0
2016-May-23 04:33N 54°22' E 010°09'0 0.0
2016-May-23 03:33N 54°22' E 010°09'0 0.0
2016-May-23 02:34N 54°22' E 010°09'0 0.0
2016-May-23 01:33N 54°22' E 010°09'0 0.0
2016-May-23 00:33N 54°22' E 010°09'0 0.0
2016-May-22 23:33N 54°22' E 010°09'0 0.0
2016-May-22 22:33N 54°22' E 010°09'0 0.0
2016-May-22 21:33N 54°22' E 010°09'0 0.0
2016-May-22 20:33N 54°22' E 010°09'0 0.0
2016-May-22 19:33N 54°22' E 010°09'5 4.7
2016-May-22 18:33N 54°26' E 010°13'7 6.5
2016-May-22 17:33N 54°33' E 010°11'  
2016-May-20 08:33N 54°38' E 010°08'6 6.0
2016-May-20 07:33N 54°32' E 010°11'6 6.0
2016-May-20 06:34N 54°26' E 010°13'5 4.7
2016-May-20 05:33N 54°22' E 010°09'0 0.0
2016-May-20 04:33N 54°22' E 010°09'0 0.0
2016-May-20 03:33N 54°22' E 010°09'0 0.0
2016-May-20 02:33N 54°22' E 010°09'0 0.0
2016-May-20 01:33N 54°22' E 010°09'0 0.0
2016-May-20 00:33N 54°22' E 010°09'0 0.0
2016-May-19 23:26N 54°22' E 010°09'0 0.0
2016-May-19 22:33N 54°22' E 010°09'0 0.0
2016-May-19 21:33N 54°22' E 010°09'0 0.0
2016-May-19 20:33N 54°22' E 010°09'0 0.0
2016-May-19 19:33N 54°22' E 010°09'0 0.0
2016-May-19 18:34N 54°22' E 010°09'0 0.0
2016-May-19 17:33N 54°22' E 010°09'0 0.0
2016-May-19 16:33N 54°22' E 010°09'0 0.0
2016-May-19 15:33N 54°22' E 010°09'0 0.0
2016-May-19 14:34N 54°22' E 010°09'0 0.0
2016-May-19 13:33N 54°22' E 010°09'0 0.0
2016-May-19 12:33N 54°22' E 010°09'0 0.0
2016-May-19 11:33N 54°22' E 010°09'0 0.0
2016-May-19 10:33N 54°22' E 010°09'0 0.0
2016-May-19 09:33N 54°22' E 010°09'0 0.0
2016-May-19 08:33N 54°22' E 010°09'0 0.0
2016-May-19 07:33N 54°22' E 010°09'0 0.0
2016-May-19 06:33N 54°22' E 010°09'0 0.0
2016-May-19 05:33N 54°22' E 010°09'0 0.0
2016-May-19 04:33N 54°22' E 010°09'0 0.0
2016-May-19 03:34N 54°22' E 010°09'0 0.0
2016-May-19 02:33N 54°22' E 010°09'0 0.0
2016-May-19 01:34N 54°22' E 010°09'0 0.0
2016-May-19 00:33N 54°22' E 010°09'0 0.0
2016-May-18 23:33N 54°22' E 010°09'0 0.0
2016-May-18 22:33N 54°22' E 010°09'0 0.0
2016-May-18 21:33N 54°22' E 010°09'0 0.0
2016-May-18 20:33N 54°22' E 010°09'0 0.0
2016-May-18 19:33N 54°22' E 010°09'0 0.0
2016-May-18 18:33N 54°22' E 010°09'0 0.0
2016-May-18 17:33N 54°22' E 010°09'0 0.0
2016-May-18 16:33N 54°22' E 010°09'0 0.0
2016-May-18 15:33N 54°22' E 010°09'0 0.0
2016-May-18 14:33N 54°22' E 010°09'0 0.0
2016-May-18 13:33N 54°22' E 010°09'0 0.0
2016-May-18 12:33N 54°22' E 010°09'0 0.0
2016-May-18 11:33N 54°22' E 010°09'0 0.0
2016-May-18 10:33N 54°22' E 010°09'0 0.0
2016-May-18 09:33N 54°22' E 010°09'0 0.0
2016-May-18 08:29N 54°22' E 010°09'0 0.0
2016-May-18 07:33N 54°22' E 010°09'0 0.0
2016-May-18 06:33N 54°22' E 010°09'0 0.0
2016-May-18 05:32N 54°22' E 010°09'0 0.0
2016-May-17 17:06N 54°22' E 010°09'0 0.0
2016-May-17 14:08N 54°22' E 010°09'0 0.8
2016-May-17 13:33N 54°22' E 010°10'20 6.3
2016-May-17 10:23N 54°40' E 010°24'5 5.8
2016-May-17 09:33N 54°45' E 010°27'6 6.0
2016-May-17 08:33N 54°50' E 010°32'1 1.0
2016-May-17 07:33N 54°51' E 010°31'0 0.0
2016-May-17 06:33N 54°51' E 010°31'0 0.0
2016-May-17 05:33N 54°51' E 010°31'0 0.0
2016-May-17 04:33N 54°51' E 010°31'0 0.0
2016-May-17 03:34N 54°51' E 010°31'0 0.0
2016-May-17 02:33N 54°51' E 010°31'0 0.0
2016-May-17 01:33N 54°51' E 010°31'0 0.0
2016-May-17 00:33N 54°51' E 010°31'0 0.0
2016-May-16 23:33N 54°51' E 010°31'0 0.0
2016-May-16 22:33N 54°51' E 010°31'0 0.0
2016-May-16 21:34N 54°51' E 010°31'0 0.0
2016-May-16 20:33N 54°51' E 010°31'0 0.0
2016-May-16 19:33N 54°51' E 010°31'0 0.0
2016-May-16 18:33N 54°51' E 010°31'0 0.0
2016-May-16 17:33N 54°51' E 010°31'0 0.0
2016-May-16 16:33N 54°51' E 010°31'0 0.0
2016-May-16 15:33N 54°51' E 010°31'0 0.0
2016-May-16 14:33N 54°51' E 010°31'0 0.0
2016-May-16 13:33N 54°51' E 010°31'1 0.9
2016-May-16 12:33N 54°51' E 010°33'  
Track history (hours):
 
Tides and Currents Weather Stations Pressure Air Temp Water Temp Dewpoint Dewpoint Depression Visibility Wind Speed Wind Dir Waves Ship Positions

Ide Min (Netherlands)

Ship's website: http://www.idemin.nl/english/english.html

Last reported at 2016-May-24 16:33 UTC. Time now 2016-May-24 17:40 UTC.
Position N 54°22' E 010°09'.

Length 40 m; draft 2.4 m.

MMSI: 244537000.

Date/timePositionNaut miles runAvg speedWind from/ knotsBaromVisibWave heightAir tempDewpointWater temp
2016-May-24 16:33N 54°22' E 010°09'0 0.0
2016-May-24 15:33N 54°22' E 010°09'0 0.0
2016-May-24 14:34N 54°22' E 010°09'0 0.0
2016-May-24 13:33N 54°22' E 010°09'0 0.0
2016-May-24 12:33N 54°22' E 010°09'0 0.0
2016-May-24 11:34N 54°22' E 010°09'0 0.0
2016-May-24 10:33N 54°22' E 010°09'0 0.0
2016-May-24 09:33N 54°22' E 010°09'0 0.0
2016-May-24 08:33N 54°22' E 010°09'0 0.0
2016-May-24 07:33N 54°22' E 010°09'0 0.0
2016-May-24 06:33N 54°22' E 010°09'0 0.0
2016-May-24 05:33N 54°22' E 010°09'0 0.0
2016-May-24 04:33N 54°22' E 010°09'0 0.0
2016-May-24 03:33N 54°22' E 010°09'0 0.0
2016-May-24 02:33N 54°22' E 010°09'0 0.0
2016-May-24 01:33N 54°22' E 010°09'0 0.0
2016-May-24 00:34N 54°22' E 010°09'0 0.0
2016-May-23 23:33N 54°22' E 010°09'0 0.0
2016-May-23 22:33N 54°22' E 010°09'0 0.0
2016-May-23 21:33N 54°22' E 010°09'0 0.0
2016-May-23 20:33N 54°22' E 010°09'0 0.0
2016-May-23 19:33N 54°22' E 010°09'0 0.0
2016-May-23 18:33N 54°22' E 010°09'0 0.0
2016-May-23 17:33N 54°22' E 010°09'0 0.0
2016-May-23 16:33N 54°22' E 010°09'0 0.0
2016-May-23 15:33N 54°22' E 010°09'0 0.0
2016-May-23 14:33N 54°22' E 010°09'0 0.0
2016-May-23 13:33N 54°22' E 010°09'0 0.0
2016-May-23 12:33N 54°22' E 010°09'0 0.0
2016-May-23 11:33N 54°22' E 010°09'0 0.0
2016-May-23 10:33N 54°22' E 010°09'0 0.0
2016-May-23 09:33N 54°22' E 010°09'0 0.0
2016-May-23 08:33N 54°22' E 010°09'0 0.0
2016-May-23 07:34N 54°22' E 010°09'0 0.0
2016-May-23 06:33N 54°22' E 010°09'0 0.0
2016-May-23 05:33N 54°22' E 010°09'0 0.0
2016-May-23 04:33N 54°22' E 010°09'0 0.0
2016-May-23 03:33N 54°22' E 010°09'0 0.0
2016-May-23 02:34N 54°22' E 010°09'0 0.0
2016-May-23 01:33N 54°22' E 010°09'0 0.0
2016-May-23 00:33N 54°22' E 010°09'0 0.0
2016-May-22 23:33N 54°22' E 010°09'0 0.0
2016-May-22 22:33N 54°22' E 010°09'0 0.0
2016-May-22 21:33N 54°22' E 010°09'0 0.0
2016-May-22 20:33N 54°22' E 010°09'0 0.0
2016-May-22 19:33N 54°22' E 010°09'5 4.7
2016-May-22 18:33N 54°26' E 010°13'7 6.5
2016-May-22 17:33N 54°33' E 010°11'  
2016-May-20 08:33N 54°38' E 010°08'6 6.0
2016-May-20 07:33N 54°32' E 010°11'6 6.0
2016-May-20 06:34N 54°26' E 010°13'5 4.7
2016-May-20 05:33N 54°22' E 010°09'0 0.0
2016-May-20 04:33N 54°22' E 010°09'0 0.0
2016-May-20 03:33N 54°22' E 010°09'0 0.0
2016-May-20 02:33N 54°22' E 010°09'0 0.0
2016-May-20 01:33N 54°22' E 010°09'0 0.0
2016-May-20 00:33N 54°22' E 010°09'0 0.0
2016-May-19 23:26N 54°22' E 010°09'0 0.0
2016-May-19 22:33N 54°22' E 010°09'0 0.0
2016-May-19 21:33N 54°22' E 010°09'0 0.0
2016-May-19 20:33N 54°22' E 010°09'0 0.0
2016-May-19 19:33N 54°22' E 010°09'0 0.0
2016-May-19 18:34N 54°22' E 010°09'0 0.0
2016-May-19 17:33N 54°22' E 010°09'0 0.0
2016-May-19 16:33N 54°22' E 010°09'0 0.0
2016-May-19 15:33N 54°22' E 010°09'0 0.0
2016-May-19 14:34N 54°22' E 010°09'0 0.0
2016-May-19 13:33N 54°22' E 010°09'0 0.0
2016-May-19 12:33N 54°22' E 010°09'0 0.0
2016-May-19 11:33N 54°22' E 010°09'0 0.0
2016-May-19 10:33N 54°22' E 010°09'0 0.0
2016-May-19 09:33N 54°22' E 010°09'0 0.0
2016-May-19 08:33N 54°22' E 010°09'0 0.0
2016-May-19 07:33N 54°22' E 010°09'0 0.0
2016-May-19 06:33N 54°22' E 010°09'0 0.0
2016-May-19 05:33N 54°22' E 010°09'0 0.0
2016-May-19 04:33N 54°22' E 010°09'0 0.0
2016-May-19 03:34N 54°22' E 010°09'0 0.0
2016-May-19 02:33N 54°22' E 010°09'0 0.0
2016-May-19 01:34N 54°22' E 010°09'0 0.0
2016-May-19 00:33N 54°22' E 010°09'0 0.0
2016-May-18 23:33N 54°22' E 010°09'0 0.0
2016-May-18 22:33N 54°22' E 010°09'0 0.0
2016-May-18 21:33N 54°22' E 010°09'0 0.0
2016-May-18 20:33N 54°22' E 010°09'0 0.0
2016-May-18 19:33N 54°22' E 010°09'0 0.0
2016-May-18 18:33N 54°22' E 010°09'0 0.0
2016-May-18 17:33N 54°22' E 010°09'0 0.0
2016-May-18 16:33N 54°22' E 010°09'0 0.0
2016-May-18 15:33N 54°22' E 010°09'0 0.0
2016-May-18 14:33N 54°22' E 010°09'0 0.0
2016-May-18 13:33N 54°22' E 010°09'0 0.0
2016-May-18 12:33N 54°22' E 010°09'0 0.0
2016-May-18 11:33N 54°22' E 010°09'0 0.0
2016-May-18 10:33N 54°22' E 010°09'0 0.0
2016-May-18 09:33N 54°22' E 010°09'0 0.0
2016-May-18 08:29N 54°22' E 010°09'0 0.0
2016-May-18 07:33N 54°22' E 010°09'0 0.0
2016-May-18 06:33N 54°22' E 010°09'0 0.0
2016-May-18 05:32N 54°22' E 010°09'0 0.0
2016-May-17 17:06N 54°22' E 010°09'0 0.0
2016-May-17 14:08N 54°22' E 010°09'0 0.8
2016-May-17 13:33N 54°22' E 010°10'20 6.3
2016-May-17 10:23N 54°40' E 010°24'5 5.8
2016-May-17 09:33N 54°45' E 010°27'6 6.0
2016-May-17 08:33N 54°50' E 010°32'1 1.0
2016-May-17 07:33N 54°51' E 010°31'0 0.0
2016-May-17 06:33N 54°51' E 010°31'0 0.0
2016-May-17 05:33N 54°51' E 010°31'0 0.0
2016-May-17 04:33N 54°51' E 010°31'0 0.0
2016-May-17 03:34N 54°51' E 010°31'0 0.0
2016-May-17 02:33N 54°51' E 010°31'0 0.0
2016-May-17 01:33N 54°51' E 010°31'0 0.0
2016-May-17 00:33N 54°51' E 010°31'0 0.0
2016-May-16 23:33N 54°51' E 010°31'0 0.0
2016-May-16 22:33N 54°51' E 010°31'0 0.0
2016-May-16 21:34N 54°51' E 010°31'0 0.0
2016-May-16 20:33N 54°51' E 010°31'0 0.0
2016-May-16 19:33N 54°51' E 010°31'0 0.0
2016-May-16 18:33N 54°51' E 010°31'0 0.0
2016-May-16 17:33N 54°51' E 010°31'0 0.0
2016-May-16 16:33N 54°51' E 010°31'0 0.0
2016-May-16 15:33N 54°51' E 010°31'0 0.0
2016-May-16 14:33N 54°51' E 010°31'0 0.0
2016-May-16 13:33N 54°51' E 010°31'1 0.9
2016-May-16 12:33N 54°51' E 010°33'  

Dump ship's entire track history